createdAt,value
2022-08-05T00:01:28.034Z,3.37
2022-08-05T00:03:56.778Z,3.30
2022-08-05T00:06:32.228Z,3.17
2022-08-05T00:09:00.514Z,3.47
2022-08-05T00:11:34.607Z,3.10
2022-08-05T00:14:12.846Z,2.90
2022-08-05T00:16:52.774Z,3.10
2022-08-05T00:19:22.709Z,2.67
2022-08-05T00:21:51.378Z,2.60
2022-08-05T00:24:24.224Z,3.60
2022-08-05T00:26:52.183Z,3.70
2022-08-05T00:29:22.559Z,2.80
2022-08-05T00:32:10.911Z,3.30
2022-08-05T00:34:53.414Z,2.93
2022-08-05T00:37:50.482Z,2.77
2022-08-05T00:40:14.758Z,3.10
2022-08-05T00:42:48.233Z,3.63
2022-08-05T00:45:16.853Z,3.17
2022-08-05T00:47:57.688Z,2.47
2022-08-05T00:50:31.919Z,2.83
2022-08-05T00:52:58.565Z,3.00
2022-08-05T00:55:33.931Z,3.07
2022-08-05T00:58:01.432Z,3.37
2022-08-05T01:00:31.611Z,2.50
2022-08-05T01:02:59.710Z,2.30
2022-08-05T01:05:27.718Z,3.47
2022-08-05T01:08:40.218Z,4.13
2022-08-05T01:10:54.018Z,2.93
2022-08-05T01:13:27.595Z,2.83
2022-08-05T01:16:46.204Z,3.17
2022-08-05T01:19:30.421Z,3.13
2022-08-05T01:22:47.865Z,3.10
2022-08-05T01:25:53.444Z,3.30
2022-08-05T01:28:39.552Z,3.13
2022-08-05T01:31:09.775Z,3.50
2022-08-05T01:33:59.985Z,3.37
2022-08-05T01:36:32.528Z,3.23
2022-08-05T01:39:01.376Z,3.27
2022-08-05T01:41:32.536Z,2.73
2022-08-05T01:44:00.811Z,3.23
2022-08-05T01:46:44.665Z,3.40
2022-08-05T01:49:23.972Z,3.00
2022-08-05T01:51:56.410Z,3.47
2022-08-05T01:54:28.384Z,3.27
2022-08-05T01:58:12.972Z,3.43
2022-08-05T01:59:47.463Z,3.83
2022-08-05T02:02:15.983Z,3.43
2022-08-05T02:04:49.454Z,3.47
2022-08-05T02:07:21.967Z,3.40
2022-08-05T02:09:50.993Z,3.43
2022-08-05T02:12:32.863Z,3.67
2022-08-05T02:15:12.644Z,3.37
2022-08-05T02:18:33.178Z,3.40
2022-08-05T02:20:47.239Z,3.40
2022-08-05T02:23:15.993Z,3.00
2022-08-05T02:25:49.191Z,3.50
2022-08-05T02:28:28.882Z,3.80
2022-08-05T02:31:07.641Z,4.10
2022-08-05T02:33:57.607Z,3.47
2022-08-05T02:36:27.564Z,2.80
2022-08-05T02:38:57.606Z,3.70
2022-08-05T02:41:28.678Z,3.13
2022-08-05T02:44:13.040Z,3.47
2022-08-05T02:46:53.255Z,3.27
2022-08-05T02:49:36.503Z,3.70
2022-08-05T02:52:09.818Z,3.70
2022-08-05T02:54:41.420Z,3.80
2022-08-05T02:58:10.937Z,3.53
2022-08-05T03:00:02.174Z,3.07
2022-08-05T03:02:33.889Z,4.17
2022-08-05T03:05:01.930Z,4.07
2022-08-05T03:07:59.220Z,3.53
2022-08-05T03:10:24.538Z,4.40
2022-08-05T03:12:53.628Z,3.90
2022-08-05T03:15:23.567Z,3.50
2022-08-05T03:17:55.769Z,3.50
2022-08-05T03:20:24.529Z,3.90
2022-08-05T03:22:52.237Z,3.80
2022-08-05T03:25:34.094Z,4.23
2022-08-05T03:28:08.731Z,4.63
2022-08-05T03:30:36.702Z,3.70
2022-08-05T03:33:06.386Z,3.40
2022-08-05T03:35:40.774Z,3.70
2022-08-05T03:38:11.143Z,4.67
2022-08-05T03:40:47.528Z,3.93
2022-08-05T03:44:08.930Z,4.27
2022-08-05T03:46:04.256Z,4.07
2022-08-05T03:48:35.613Z,3.87
2022-08-05T03:52:49.473Z,3.30
2022-08-05T03:56:03.680Z,3.67
2022-08-05T03:57:15.980Z,3.63
2022-08-05T04:00:07.103Z,4.13
2022-08-05T04:02:51.889Z,4.20
2022-08-05T04:05:20.007Z,3.70
2022-08-05T04:07:57.192Z,3.87
2022-08-05T04:10:27.686Z,4.07
2022-08-05T04:12:56.342Z,3.63
2022-08-05T04:15:33.148Z,3.83
2022-08-05T04:18:07.420Z,4.20
2022-08-05T04:20:36.488Z,3.90
2022-08-05T04:23:03.515Z,3.80
2022-08-05T04:25:57.853Z,3.60
2022-08-05T04:28:17.628Z,3.50
2022-08-05T04:30:45.072Z,3.70
2022-08-05T04:33:12.291Z,3.67
2022-08-05T04:36:15.912Z,3.40
2022-08-05T04:38:39.645Z,4.40
2022-08-05T04:41:07.324Z,3.30
2022-08-05T04:43:36.317Z,3.57
2022-08-05T04:46:04.559Z,3.20
2022-08-05T04:48:32.446Z,4.10
2022-08-05T04:51:01.970Z,4.60
2022-08-05T04:53:33.965Z,3.60
2022-08-05T04:56:33.934Z,3.80
2022-08-05T04:58:49.741Z,4.43
2022-08-05T05:02:05.987Z,4.30
2022-08-05T05:04:03.571Z,3.77
2022-08-05T05:06:36.068Z,3.70
2022-08-05T05:09:16.066Z,4.60
2022-08-05T05:11:54.317Z,4.00
2022-08-05T05:14:31.442Z,4.63
2022-08-05T05:16:59.727Z,5.30
2022-08-05T05:19:36.164Z,4.33
2022-08-05T05:22:24.258Z,3.90
2022-08-05T05:24:57.527Z,4.20
2022-08-05T05:27:44.415Z,3.90
2022-08-05T05:30:31.413Z,4.07
2022-08-05T05:33:03.547Z,3.07
2022-08-05T05:35:44.808Z,4.27
2022-08-05T05:38:13.269Z,4.10
2022-08-05T05:40:49.473Z,4.00
2022-08-05T05:43:22.366Z,3.90
2022-08-05T05:46:10.636Z,4.23
2022-08-05T05:48:41.777Z,3.67
2022-08-05T05:51:15.106Z,3.40
2022-08-05T05:53:54.446Z,4.17
2022-08-05T05:56:33.325Z,3.97
2022-08-05T05:59:06.448Z,3.90
2022-08-05T06:01:38.131Z,3.57
2022-08-05T06:04:11.844Z,3.10
2022-08-05T06:06:41.730Z,3.10
2022-08-05T06:09:09.268Z,3.20
2022-08-05T06:11:58.998Z,3.60
2022-08-05T06:14:27.877Z,3.07
2022-08-05T06:16:54.831Z,2.83
2022-08-05T06:19:26.071Z,2.67
2022-08-05T06:22:00.990Z,2.93
2022-08-05T06:24:27.664Z,2.80
2022-08-05T06:26:54.363Z,2.30
2022-08-05T06:29:45.422Z,2.90
2022-08-05T06:32:26.066Z,2.80
2022-08-05T06:34:57.946Z,2.60
2022-08-05T06:37:55.685Z,2.83
2022-08-05T06:40:17.828Z,2.57
2022-08-05T06:42:48.089Z,2.50
2022-08-05T06:45:21.354Z,2.47
2022-08-05T06:48:47.060Z,2.97
2022-08-05T06:50:53.282Z,2.33
2022-08-05T06:53:27.865Z,2.90
2022-08-05T06:55:56.351Z,2.50
2022-08-05T06:58:35.408Z,2.80
2022-08-05T07:01:05.431Z,3.17
2022-08-05T07:03:33.335Z,2.47
2022-08-05T07:06:05.811Z,2.70
2022-08-05T07:08:47.673Z,2.50
2022-08-05T07:11:22.260Z,2.30
2022-08-05T07:14:20.153Z,2.70
2022-08-05T07:17:58.331Z,2.90
2022-08-05T07:22:33.348Z,2.67
2022-08-05T07:25:22.833Z,2.60
2022-08-05T07:27:56.413Z,2.60
2022-08-05T07:30:31.749Z,2.60
2022-08-05T07:33:00.842Z,2.53
2022-08-05T07:36:03.257Z,2.87
2022-08-05T07:38:32.882Z,2.70
2022-08-05T07:41:16.635Z,2.90
2022-08-05T07:43:49.917Z,2.80
2022-08-05T07:46:23.486Z,2.90
2022-08-05T07:49:02.070Z,2.57
2022-08-05T07:51:36.699Z,3.23
2022-08-05T07:54:08.312Z,2.47
2022-08-05T07:57:02.785Z,2.70
2022-08-05T07:59:38.133Z,2.87
2022-08-05T08:02:16.758Z,2.97
2022-08-05T08:04:49.519Z,3.40
2022-08-05T08:07:21.978Z,2.83
2022-08-05T08:09:49.639Z,2.53
2022-08-05T08:12:35.310Z,2.47
2022-08-05T08:15:09.632Z,2.80
2022-08-05T08:17:49.876Z,3.00
2022-08-05T08:21:00.453Z,2.67
2022-08-05T08:24:00.068Z,2.70
2022-08-05T08:26:00.653Z,2.90
2022-08-05T08:28:37.215Z,3.07
2022-08-05T08:31:09.810Z,3.00
2022-08-05T08:33:41.757Z,3.10
2022-08-05T08:38:55.907Z,2.87
2022-08-05T08:41:51.663Z,3.60
2022-08-05T08:45:25.093Z,3.60
2022-08-05T08:47:04.145Z,2.67
2022-08-05T08:50:14.290Z,3.10
2022-08-05T08:52:42.064Z,3.77
2022-08-05T08:55:19.454Z,3.10
2022-08-05T08:58:02.537Z,3.40
2022-08-05T09:00:30.278Z,3.63
2022-08-05T09:02:57.745Z,3.73
2022-08-05T09:05:38.965Z,3.30
2022-08-05T09:08:12.753Z,3.53
2022-08-05T09:10:41.790Z,3.97
2022-08-05T09:13:16.879Z,3.70
2022-08-05T09:15:43.615Z,3.63
2022-08-05T09:18:10.352Z,3.47
2022-08-05T09:20:41.931Z,4.27
2022-08-05T09:23:19.901Z,3.50
2022-08-05T09:26:01.629Z,5.00
2022-08-05T09:28:33.593Z,3.50
2022-08-05T09:31:43.968Z,3.50
2022-08-05T09:34:00.990Z,3.07
2022-08-05T09:36:54.167Z,3.10
2022-08-05T09:39:27.746Z,3.10
2022-08-05T09:42:17.260Z,2.90
2022-08-05T09:44:50.530Z,3.10
2022-08-05T09:47:20.630Z,2.70
2022-08-05T09:50:02.262Z,3.20
2022-08-05T09:52:34.489Z,3.20
2022-08-05T09:55:56.714Z,3.03
2022-08-05T09:57:59.800Z,3.13
2022-08-05T10:00:30.475Z,3.43
2022-08-05T10:02:58.385Z,2.87
2022-08-05T10:05:27.723Z,3.30
2022-08-05T10:08:35.947Z,3.00
2022-08-05T10:10:50.339Z,2.80
2022-08-05T10:13:45.676Z,3.00
2022-08-05T10:16:33.978Z,3.20
2022-08-05T10:19:08.521Z,3.23
2022-08-05T10:21:40.900Z,2.83
2022-08-05T10:24:12.834Z,3.30
2022-08-05T10:26:51.844Z,3.43
2022-08-05T10:29:24.030Z,2.80
2022-08-05T10:32:52.052Z,3.20
2022-08-05T10:34:57.525Z,2.60
2022-08-05T10:37:40.297Z,3.43
2022-08-05T10:40:38.991Z,3.67
2022-08-05T10:43:45.639Z,2.80
2022-08-05T10:46:14.601Z,2.60
2022-08-05T10:49:01.440Z,2.33
2022-08-05T10:51:48.630Z,2.60
2022-08-05T10:54:56.278Z,2.40
2022-08-05T10:57:31.033Z,2.03
2022-08-05T11:00:20.194Z,3.00
2022-08-05T11:03:24.604Z,2.67
2022-08-05T11:06:14.615Z,2.90
2022-08-05T11:09:32.115Z,2.50
2022-08-05T11:12:26.456Z,2.10
2022-08-05T11:15:58.944Z,2.60
2022-08-05T11:18:30.195Z,2.80
2022-08-05T11:21:00.055Z,2.17
2022-08-05T11:24:02.233Z,2.80
2022-08-05T11:26:32.126Z,2.30
2022-08-05T11:29:11.761Z,2.13
2022-08-05T11:31:57.341Z,2.20
2022-08-05T11:34:50.858Z,2.80
2022-08-05T11:38:36.951Z,2.23
2022-08-05T11:41:12.704Z,2.13
2022-08-05T11:44:05.874Z,1.83
2022-08-05T11:46:35.735Z,1.97
2022-08-05T11:49:04.332Z,2.30
2022-08-05T11:51:44.052Z,2.30
2022-08-05T11:54:33.489Z,2.17
2022-08-05T11:57:08.234Z,2.47
2022-08-05T11:59:49.492Z,2.50
2022-08-05T12:02:23.889Z,2.53
2022-08-05T12:04:59.163Z,1.70
2022-08-05T12:08:08.645Z,1.87
2022-08-05T12:10:22.845Z,2.00
2022-08-05T12:12:59.166Z,2.20
2022-08-05T12:15:35.783Z,2.20
2022-08-05T12:18:10.540Z,2.00
2022-08-05T12:20:38.732Z,2.27
2022-08-05T12:23:12.496Z,1.97
2022-08-05T12:25:53.757Z,2.00
2022-08-05T12:28:32.613Z,2.17
2022-08-05T12:31:02.062Z,2.63
2022-08-05T12:33:36.081Z,2.10
2022-08-05T12:36:07.053Z,1.93
2022-08-05T12:38:37.271Z,2.47
2022-08-05T12:41:12.278Z,2.43
2022-08-05T12:43:57.438Z,2.17
2022-08-05T12:46:31.428Z,2.00
2022-08-05T12:49:13.824Z,2.40
2022-08-05T12:52:12.755Z,2.00
2022-08-05T12:54:49.650Z,2.40
2022-08-05T12:57:17.703Z,2.07
2022-08-05T13:01:57.041Z,2.00
2022-08-05T13:02:37.172Z,2.17
2022-08-05T13:05:07.196Z,2.17
2022-08-05T13:10:21.936Z,2.40
2022-08-05T13:12:51.056Z,2.03
2022-08-05T13:15:41.873Z,2.03
2022-08-05T13:18:21.271Z,2.23
2022-08-05T13:20:50.732Z,2.30
2022-08-05T13:23:22.462Z,2.00
2022-08-05T13:25:51.755Z,2.27
2022-08-05T13:28:26.014Z,2.10
2022-08-05T13:30:53.423Z,2.27
2022-08-05T13:34:21.751Z,2.20
2022-08-05T13:36:09.205Z,1.83
2022-08-05T13:38:41.985Z,2.07
2022-08-05T13:41:10.685Z,2.33
2022-08-05T13:43:44.683Z,2.20
2022-08-05T13:46:14.818Z,2.17
2022-08-05T13:48:57.550Z,2.70
2022-08-05T13:51:36.410Z,2.50
2022-08-05T13:54:12.278Z,2.37
2022-08-05T13:56:44.728Z,3.00
2022-08-05T13:59:20.371Z,3.50
2022-08-05T14:01:58.090Z,4.30
2022-08-05T14:04:51.552Z,2.97
2022-08-05T14:07:55.387Z,2.73
2022-08-05T14:10:18.928Z,2.30
2022-08-05T14:12:48.426Z,2.43
2022-08-05T14:16:05.437Z,2.90
2022-08-05T14:18:02.767Z,2.20
2022-08-05T14:20:30.872Z,2.70
2022-08-05T14:22:58.762Z,2.87
2022-08-05T14:25:29.222Z,1.93
2022-08-05T14:27:58.577Z,2.30
2022-08-05T14:30:26.671Z,2.37
2022-08-05T14:32:54.912Z,2.00
2022-08-05T14:35:23.729Z,1.77
2022-08-05T14:38:04.475Z,2.27
2022-08-05T14:40:31.175Z,2.27
2022-08-05T14:42:57.855Z,1.87
2022-08-05T14:45:24.935Z,2.23
2022-08-05T14:48:03.805Z,2.40
2022-08-05T14:50:33.257Z,2.17
2022-08-05T14:53:06.877Z,2.20
2022-08-05T14:55:39.353Z,2.60
2022-08-05T14:58:11.986Z,2.30
2022-08-05T15:00:58.250Z,2.30
2022-08-05T15:03:33.537Z,2.27
2022-08-05T15:06:07.942Z,2.00
2022-08-05T15:08:59.553Z,1.90
2022-08-05T15:11:51.525Z,2.20
2022-08-05T15:14:33.445Z,2.53
2022-08-05T15:17:03.756Z,1.70
2022-08-05T15:19:31.022Z,1.90
2022-08-05T15:22:00.246Z,2.30
2022-08-05T15:24:28.204Z,2.33
2022-08-05T15:26:55.883Z,2.13
2022-08-05T15:29:22.899Z,2.50
2022-08-05T15:31:52.781Z,2.30
2022-08-05T15:34:31.903Z,2.20
2022-08-05T15:37:03.435Z,2.13
2022-08-05T15:41:02.072Z,2.07
2022-08-05T15:42:53.430Z,2.97
2022-08-05T15:45:06.135Z,3.23
2022-08-05T15:47:35.929Z,2.77
2022-08-05T15:50:03.745Z,2.20
2022-08-05T15:52:53.774Z,2.13
2022-08-05T15:55:19.502Z,2.03
2022-08-05T15:57:52.142Z,2.47
2022-08-05T16:00:32.565Z,2.40
2022-08-05T16:03:07.034Z,2.67
2022-08-05T16:05:33.852Z,1.93
2022-08-05T16:08:00.905Z,2.33
2022-08-05T16:10:27.964Z,2.37
2022-08-05T16:12:56.350Z,2.47
2022-08-05T16:15:23.634Z,2.40
2022-08-05T16:17:57.388Z,2.20
2022-08-05T16:20:25.358Z,2.60
2022-08-05T16:22:52.097Z,2.70
2022-08-05T16:25:18.887Z,2.30
2022-08-05T16:28:00.925Z,2.20
2022-08-05T16:30:32.334Z,2.40
2022-08-05T16:32:59.837Z,2.30
2022-08-05T16:35:28.446Z,2.30
2022-08-05T16:38:11.911Z,2.53
2022-08-05T16:40:51.830Z,2.63
2022-08-05T16:43:31.747Z,2.50
2022-08-05T16:46:04.343Z,2.10
2022-08-05T16:48:35.728Z,2.37
2022-08-05T16:51:02.538Z,2.70
2022-08-05T16:54:04.334Z,2.33
2022-08-05T16:56:22.557Z,2.70
2022-08-05T16:58:50.618Z,2.87
2022-08-05T17:01:18.905Z,2.50
2022-08-05T17:03:45.897Z,2.30
2022-08-05T17:06:13.045Z,3.17
2022-08-05T17:08:52.913Z,3.00
2022-08-05T17:11:23.737Z,3.00
2022-08-05T17:14:05.923Z,2.80
2022-08-05T17:16:36.467Z,3.17
2022-08-05T17:19:07.552Z,2.60
2022-08-05T17:21:37.251Z,3.10
2022-08-05T17:24:30.180Z,2.87
2022-08-05T17:26:57.870Z,3.10
2022-08-05T17:29:34.043Z,3.13
2022-08-05T17:32:11.681Z,2.67
2022-08-05T17:34:43.663Z,3.10
2022-08-05T17:37:40.743Z,2.77
2022-08-05T17:39:57.535Z,3.13
2022-08-05T17:42:32.097Z,3.03
2022-08-05T17:45:18.091Z,2.90
2022-08-05T17:47:53.466Z,4.53
2022-08-05T17:50:28.671Z,3.00
2022-08-05T17:53:01.652Z,2.83
2022-08-05T17:55:37.437Z,3.20
2022-08-05T17:58:12.577Z,2.67
2022-08-05T18:00:45.059Z,3.60
2022-08-05T18:03:27.993Z,3.40
2022-08-05T18:06:04.983Z,3.60
2022-08-05T18:08:33.430Z,2.87
2022-08-05T18:11:00.995Z,3.03
2022-08-05T18:13:36.887Z,3.00
2022-08-05T18:16:13.495Z,2.93
2022-08-05T18:18:41.147Z,2.80
2022-08-05T18:21:13.386Z,2.97
2022-08-05T18:23:48.168Z,2.30
2022-08-05T18:26:18.743Z,2.50
2022-08-05T18:28:46.366Z,2.67
2022-08-05T18:31:13.373Z,2.90
2022-08-05T18:33:46.678Z,2.90
2022-08-05T18:36:15.369Z,2.43
2022-08-05T18:38:42.643Z,2.80
2022-08-05T18:41:57.641Z,3.00
2022-08-05T18:43:56.334Z,3.07
2022-08-05T18:46:26.086Z,3.00
2022-08-05T18:48:56.029Z,2.80
2022-08-05T18:52:04.745Z,2.80
2022-08-05T18:54:31.172Z,3.00
2022-08-05T18:56:59.659Z,3.30
2022-08-05T18:59:43.058Z,3.30
2022-08-05T19:02:28.198Z,3.60
2022-08-05T19:05:03.235Z,2.77
2022-08-05T19:07:46.604Z,3.00
2022-08-05T19:10:14.838Z,3.23
2022-08-05T19:12:41.715Z,3.37
2022-08-05T19:15:25.014Z,3.37
2022-08-05T19:18:08.431Z,2.90
2022-08-05T19:20:36.956Z,2.50
2022-08-05T19:23:08.229Z,2.80
2022-08-05T19:25:43.326Z,3.20
2022-08-05T19:28:10.457Z,3.60
2022-08-05T19:30:37.168Z,3.20
2022-08-05T19:33:04.448Z,2.70
2022-08-05T19:35:56.779Z,3.03
2022-08-05T19:38:26.351Z,3.60
2022-08-05T19:40:53.637Z,4.73
2022-08-05T19:44:04.004Z,6.00
2022-08-05T19:46:16.898Z,5.30
2022-08-05T19:48:53.813Z,4.70
2022-08-05T19:51:59.783Z,5.77
2022-08-05T19:54:21.919Z,6.07
2022-08-05T19:56:58.039Z,5.67
2022-08-05T19:59:56.372Z,5.30
2022-08-05T20:02:12.839Z,3.90
2022-08-05T20:04:43.225Z,4.37
2022-08-05T20:07:13.870Z,5.53
2022-08-05T20:09:54.673Z,4.40
2022-08-05T20:12:23.457Z,2.33
2022-08-05T20:14:52.202Z,2.00
2022-08-05T20:17:23.416Z,2.30
2022-08-05T20:19:50.962Z,3.57
2022-08-05T20:22:25.052Z,4.00
2022-08-05T20:24:53.989Z,4.43
2022-08-05T20:27:21.082Z,3.37
2022-08-05T20:29:57.699Z,2.93
2022-08-05T20:32:27.446Z,3.33
2022-08-05T20:34:54.649Z,3.00
2022-08-05T20:38:06.608Z,3.03
2022-08-05T20:40:09.209Z,2.63
2022-08-05T20:42:36.070Z,3.00
2022-08-05T20:45:05.238Z,3.47
2022-08-05T20:47:33.252Z,3.23
2022-08-05T20:50:01.997Z,3.20
2022-08-05T20:52:29.942Z,3.20
2022-08-05T20:55:54.322Z,3.50
2022-08-05T20:57:44.985Z,3.33
2022-08-05T21:00:35.044Z,3.33
2022-08-05T21:03:06.999Z,3.83
2022-08-05T21:05:47.713Z,4.23
2022-08-05T21:08:26.898Z,5.20
2022-08-05T21:10:59.937Z,4.93
2022-08-05T21:13:56.071Z,5.10
2022-08-05T21:16:19.020Z,4.53
2022-08-05T21:18:46.131Z,4.40
2022-08-05T21:21:12.791Z,4.10
2022-08-05T21:23:39.480Z,3.87
2022-08-05T21:26:08.271Z,3.50
2022-08-05T21:28:40.420Z,3.47
2022-08-05T21:31:14.769Z,3.30
2022-08-05T21:33:43.411Z,3.30
2022-08-05T21:36:27.569Z,3.63
2022-08-05T21:38:54.943Z,3.93
2022-08-05T21:41:21.696Z,3.40
2022-08-05T21:43:50.939Z,3.50
2022-08-05T21:46:28.728Z,3.73
2022-08-05T21:48:56.787Z,3.60
2022-08-05T21:52:21.759Z,3.67
2022-08-05T21:54:13.240Z,3.47
2022-08-05T21:56:44.239Z,3.80
2022-08-05T21:59:24.275Z,4.00
2022-08-05T22:01:54.318Z,3.10
2022-08-05T22:04:21.518Z,4.17
2022-08-05T22:06:52.567Z,3.23
2022-08-05T22:09:20.813Z,3.30
2022-08-05T22:11:48.527Z,3.87
2022-08-05T22:14:19.688Z,3.97
2022-08-05T22:17:03.939Z,3.90
2022-08-05T22:20:00.467Z,3.63
2022-08-05T22:22:27.441Z,4.10
2022-08-05T22:25:18.008Z,4.13
2022-08-05T22:28:09.658Z,4.07
2022-08-05T22:30:38.470Z,3.57
2022-08-05T22:33:57.424Z,4.50
2022-08-05T22:36:09.742Z,4.17
2022-08-05T22:38:36.769Z,4.33
2022-08-05T22:41:09.831Z,4.60
2022-08-05T22:43:38.085Z,4.47
2022-08-05T22:46:12.129Z,3.80
2022-08-05T22:48:41.641Z,4.13
2022-08-05T22:51:15.889Z,4.53
2022-08-05T22:53:50.967Z,3.60
2022-08-05T22:56:30.449Z,3.27
2022-08-05T22:59:03.944Z,3.60
2022-08-05T23:02:04.108Z,3.23
2022-08-05T23:04:32.206Z,3.93
2022-08-05T23:06:58.933Z,3.93
2022-08-05T23:09:52.631Z,4.23
2022-08-05T23:12:12.496Z,3.93
2022-08-05T23:14:39.152Z,4.10
2022-08-05T23:17:34.060Z,3.80
2022-08-05T23:20:16.326Z,4.17
2022-08-05T23:22:47.749Z,4.10
2022-08-05T23:25:52.197Z,4.27
2022-08-05T23:28:07.214Z,4.40
2022-08-05T23:30:39.718Z,3.40
2022-08-05T23:33:22.581Z,3.07
2022-08-05T23:35:56.158Z,3.20
2022-08-05T23:38:24.206Z,2.90
2022-08-05T23:40:52.608Z,3.17
2022-08-05T23:43:25.487Z,3.70
2022-08-05T23:46:19.779Z,3.80
2022-08-05T23:49:00.608Z,2.77
2022-08-05T23:51:53.372Z,2.80
2022-08-05T23:54:29.945Z,3.50
2022-08-05T23:57:04.159Z,3.70
